createdAt,value
2023-04-04T00:02:08.389Z,-1.55
2023-04-04T00:04:37.829Z,-1.58
2023-04-04T00:07:07.426Z,-1.60
2023-04-04T00:09:38.719Z,-1.62
2023-04-04T00:12:08.273Z,-1.63
2023-04-04T00:14:37.736Z,-1.67
2023-04-04T00:17:07.255Z,-1.69
2023-04-04T00:19:36.822Z,-1.72
2023-04-04T00:22:06.469Z,-1.75
2023-04-04T00:24:37.566Z,-1.73
2023-04-04T00:27:07.035Z,-1.75
2023-04-04T00:29:37.364Z,-1.77
2023-04-04T00:32:07.012Z,-1.79
2023-04-04T00:34:36.996Z,-1.81
2023-04-04T00:37:07.387Z,-1.83
2023-04-04T00:39:38.221Z,-1.83
2023-04-04T00:42:08.201Z,-1.87
2023-04-04T00:44:38.178Z,-1.88
2023-04-04T00:47:07.716Z,-1.90
2023-04-04T00:49:37.846Z,-1.91
2023-04-04T00:52:08.811Z,-1.93
2023-04-04T00:54:39.667Z,-1.94
2023-04-04T00:57:09.987Z,-1.96
2023-04-04T00:59:39.737Z,-1.99
2023-04-04T01:02:09.835Z,-2.00
2023-04-04T01:04:39.800Z,-2.00
2023-04-04T01:07:10.069Z,-2.00
2023-04-04T01:09:41.166Z,-2.03
2023-04-04T01:12:11.025Z,-2.05
2023-04-04T01:14:40.480Z,-2.06
2023-04-04T01:17:09.952Z,-2.08
2023-04-04T01:19:48.951Z,-2.09
2023-04-04T01:22:23.775Z,-2.10
2023-04-04T01:24:57.376Z,-2.13
2023-04-04T01:27:30.511Z,-2.16
2023-04-04T01:30:11.146Z,-2.19
2023-04-04T01:32:47.708Z,-2.22
2023-04-04T01:35:28.782Z,-2.25
2023-04-04T01:38:16.848Z,-2.28
2023-04-04T01:40:51.236Z,-2.29
2023-04-04T01:43:23.823Z,-2.29
2023-04-04T01:45:54.024Z,-2.30
2023-04-04T01:48:23.982Z,-2.31
2023-04-04T01:50:57.089Z,-2.33
2023-04-04T01:53:29.365Z,-2.34
2023-04-04T01:55:58.819Z,-2.36
2023-04-04T01:58:29.924Z,-2.38
2023-04-04T02:00:59.515Z,-2.37
2023-04-04T02:03:28.948Z,-2.39
2023-04-04T02:05:58.375Z,-2.42
2023-04-04T02:08:28.743Z,-2.44
2023-04-04T02:11:00.236Z,-2.45
2023-04-04T02:13:31.722Z,-2.48
2023-04-04T02:16:02.705Z,-2.49
2023-04-04T02:18:32.153Z,-2.51
2023-04-04T02:21:01.627Z,-2.53
2023-04-04T02:23:31.729Z,-2.55
2023-04-04T02:26:01.360Z,-2.57
2023-04-04T02:28:32.760Z,-2.57
2023-04-04T02:31:03.273Z,-2.59
2023-04-04T02:33:33.081Z,-2.62
2023-04-04T02:36:06.875Z,-2.64
2023-04-04T02:38:36.363Z,-2.64
2023-04-04T02:41:08.198Z,-2.66
2023-04-04T02:43:40.099Z,-2.68
2023-04-04T02:46:21.155Z,-2.70
2023-04-04T02:48:53.690Z,-2.72
2023-04-04T02:51:23.927Z,-2.75
2023-04-04T02:53:53.639Z,-2.76
2023-04-04T02:56:28.077Z,-2.77
2023-04-04T02:58:59.392Z,-2.78
2023-04-04T03:01:28.950Z,-2.79
2023-04-04T03:04:04.372Z,-2.81
2023-04-04T03:06:35.426Z,-2.81
2023-04-04T03:09:05.489Z,-2.84
2023-04-04T03:11:34.875Z,-2.86
2023-04-04T03:14:07.500Z,-2.88
2023-04-04T03:16:40.595Z,-2.91
2023-04-04T03:19:10.319Z,-2.93
2023-04-04T03:21:39.708Z,-2.94
2023-04-04T03:24:09.420Z,-2.94
2023-04-04T03:26:39.094Z,-2.96
2023-04-04T03:29:10.473Z,-2.98
2023-04-04T03:31:41.484Z,-3.00
2023-04-04T03:34:10.976Z,-3.03
2023-04-04T03:36:40.385Z,-3.04
2023-04-04T03:39:09.827Z,-3.05
2023-04-04T03:41:39.329Z,-3.08
2023-04-04T03:44:10.630Z,-3.11
2023-04-04T03:46:41.941Z,-3.13
2023-04-04T03:49:13.328Z,-3.14
2023-04-04T03:51:42.899Z,-3.14
2023-04-04T03:54:12.310Z,-3.15
2023-04-04T03:56:41.926Z,-3.16
2023-04-04T03:59:12.765Z,-3.19
2023-04-04T04:01:42.243Z,-3.19
2023-04-04T04:04:11.766Z,-3.19
2023-04-04T04:06:43.881Z,-3.21
2023-04-04T04:09:13.285Z,-3.22
2023-04-04T04:11:42.949Z,-3.25
2023-04-04T04:14:13.991Z,-3.25
2023-04-04T04:16:43.729Z,-3.26
2023-04-04T04:19:17.109Z,-3.28
2023-04-04T04:21:46.552Z,-3.30
2023-04-04T04:24:16.059Z,-3.32
2023-04-04T04:26:46.206Z,-3.32
2023-04-04T04:29:19.560Z,-3.36
2023-04-04T04:31:49.314Z,-3.38
2023-04-04T04:34:18.796Z,-3.38
2023-04-04T04:36:50.214Z,-3.41
2023-04-04T04:39:24.878Z,-3.43
2023-04-04T04:42:06.892Z,-3.45
2023-04-04T04:44:40.320Z,-3.46
2023-04-04T04:47:09.970Z,-3.45
2023-04-04T04:49:39.440Z,-3.47
2023-04-04T04:52:11.842Z,-3.49
2023-04-04T04:54:45.066Z,-3.50
2023-04-04T04:57:14.363Z,-3.50
2023-04-04T04:59:47.992Z,-3.51
2023-04-04T05:02:17.884Z,-3.51
2023-04-04T05:04:49.377Z,-3.52
2023-04-04T05:07:19.845Z,-3.53
2023-04-04T05:09:51.637Z,-3.53
2023-04-04T05:12:24.387Z,-3.54
2023-04-04T05:14:57.172Z,-3.53
2023-04-04T05:17:27.005Z,-3.53
2023-04-04T05:20:01.071Z,-3.51
2023-04-04T05:22:31.139Z,-3.50
2023-04-04T05:25:00.741Z,-3.49
2023-04-04T05:27:30.570Z,-3.46
2023-04-04T05:30:04.752Z,-3.46
2023-04-04T05:32:46.804Z,-3.43
2023-04-04T05:35:25.217Z,-3.41
2023-04-04T05:37:57.122Z,-3.38
2023-04-04T05:40:26.658Z,-3.34
2023-04-04T05:43:07.331Z,-3.31
2023-04-04T05:45:47.317Z,-3.27
2023-04-04T05:48:16.805Z,-3.23
2023-04-04T05:50:52.511Z,-3.18
2023-04-04T05:53:29.298Z,-3.12
2023-04-04T05:55:59.308Z,-3.08
2023-04-04T05:58:32.850Z,-3.05
2023-04-04T06:01:08.840Z,-3.01
2023-04-04T06:03:38.934Z,-2.98
2023-04-04T06:06:13.648Z,-2.91
2023-04-04T06:08:52.843Z,-2.85
2023-04-04T06:11:23.558Z,-2.79
2023-04-04T06:13:55.107Z,-2.74
2023-04-04T06:16:26.560Z,-2.65
2023-04-04T06:18:56.211Z,-2.59
2023-04-04T06:21:26.540Z,-2.51
2023-04-04T06:23:55.958Z,-2.47
2023-04-04T06:26:27.013Z,-2.40
2023-04-04T06:28:56.562Z,-2.34
2023-04-04T06:31:32.034Z,-2.28
2023-04-04T06:34:07.896Z,-2.21
2023-04-04T06:36:50.771Z,-2.10
2023-04-04T06:39:20.928Z,-2.01
2023-04-04T06:41:51.970Z,-1.94
2023-04-04T06:44:27.321Z,-1.86
2023-04-04T06:46:58.192Z,-1.77
2023-04-04T06:49:27.699Z,-1.68
2023-04-04T06:51:57.852Z,-1.65
2023-04-04T06:54:27.483Z,-1.60
2023-04-04T06:56:57.195Z,-1.49
2023-04-04T06:59:26.693Z,-1.38
2023-04-04T07:01:59.071Z,-1.28
2023-04-04T07:04:30.097Z,-1.18
2023-04-04T07:06:59.521Z,-1.12
2023-04-04T07:09:29.877Z,-1.02
2023-04-04T07:11:59.388Z,-0.91
2023-04-04T07:14:28.996Z,-0.80
2023-04-04T07:16:59.905Z,-0.74
2023-04-04T07:19:30.313Z,-0.69
2023-04-04T07:21:59.688Z,-0.60
2023-04-04T07:24:29.395Z,-0.56
2023-04-04T07:26:58.850Z,-0.51
2023-04-04T07:29:28.260Z,-0.44
2023-04-04T07:31:59.224Z,-0.29
2023-04-04T07:34:29.472Z,-0.19
2023-04-04T07:36:59.192Z,-0.11
2023-04-04T07:39:28.555Z,-0.01
2023-04-04T07:41:58.227Z,0.11
2023-04-04T07:44:27.621Z,0.15
2023-04-04T07:47:08.545Z,0.23
2023-04-04T07:49:40.752Z,0.31
2023-04-04T07:52:10.179Z,0.42
2023-04-04T07:54:40.170Z,0.54
2023-04-04T07:57:10.087Z,0.60
2023-04-04T07:59:39.544Z,0.71
2023-04-04T08:02:08.908Z,0.83
2023-04-04T08:04:39.769Z,0.87
2023-04-04T08:07:09.223Z,0.90
2023-04-04T08:09:38.664Z,0.86
2023-04-04T08:12:08.590Z,0.95
2023-04-04T08:14:38.161Z,1.07
2023-04-04T08:17:08.197Z,1.18
2023-04-04T08:19:38.965Z,1.31
2023-04-04T08:22:09.643Z,1.28
2023-04-04T08:24:39.113Z,1.34
2023-04-04T08:27:08.519Z,1.50
2023-04-04T08:29:38.002Z,1.65
2023-04-04T08:32:07.721Z,1.80
2023-04-04T08:34:37.415Z,1.79
2023-04-04T08:37:09.057Z,1.85
2023-04-04T08:39:38.717Z,1.91
2023-04-04T08:42:09.396Z,2.09
2023-04-04T08:44:40.634Z,2.23
2023-04-04T08:47:11.691Z,2.38
2023-04-04T08:49:46.202Z,2.56
2023-04-04T08:52:20.184Z,2.54
2023-04-04T08:54:51.926Z,2.59
2023-04-04T08:57:21.706Z,2.64
2023-04-04T08:59:51.338Z,2.87
2023-04-04T09:02:29.251Z,3.06
2023-04-04T09:05:06.416Z,3.18
2023-04-04T09:07:39.594Z,3.31
2023-04-04T09:10:12.652Z,3.43
2023-04-04T09:12:47.484Z,3.25
2023-04-04T09:15:17.368Z,3.46
2023-04-04T09:17:46.779Z,3.57
2023-04-04T09:20:37.537Z,3.86
2023-04-04T09:23:11.996Z,4.07
2023-04-04T09:26:02.550Z,4.28
2023-04-04T09:28:34.402Z,4.34
2023-04-04T09:31:10.102Z,4.26
2023-04-04T09:33:40.442Z,4.51
2023-04-04T09:36:13.016Z,4.69
2023-04-04T09:38:45.294Z,4.88
2023-04-04T09:41:17.165Z,5.07
2023-04-04T09:43:46.973Z,5.20
2023-04-04T09:46:20.431Z,4.63
2023-04-04T09:48:51.772Z,4.45
2023-04-04T09:51:21.331Z,4.25
2023-04-04T09:53:52.952Z,4.08
2023-04-04T09:56:23.459Z,4.11
2023-04-04T09:59:03.441Z,3.99
2023-04-04T10:01:35.080Z,3.98
2023-04-04T10:04:06.339Z,3.96
2023-04-04T10:06:38.701Z,3.95
2023-04-04T10:09:10.972Z,4.04
2023-04-04T10:11:40.616Z,4.30
2023-04-04T10:14:11.595Z,4.40
2023-04-04T10:16:47.029Z,4.41
2023-04-04T10:19:19.047Z,4.43
2023-04-04T10:21:48.972Z,4.17
2023-04-04T10:24:20.047Z,4.01
2023-04-04T10:26:49.554Z,4.03
2023-04-04T10:29:19.285Z,3.96
2023-04-04T10:31:58.266Z,3.95
2023-04-04T10:34:39.229Z,4.05
2023-04-04T10:37:14.852Z,4.16
2023-04-04T10:39:53.326Z,4.47
2023-04-04T10:42:23.814Z,4.73
2023-04-04T10:44:54.022Z,5.02
2023-04-04T10:47:26.343Z,5.17
2023-04-04T10:49:57.192Z,4.98
2023-04-04T10:52:30.047Z,4.99
2023-04-04T10:55:06.276Z,5.26
2023-04-04T10:57:41.686Z,5.02
2023-04-04T11:00:17.842Z,4.75
2023-04-04T11:02:51.870Z,4.75
2023-04-04T11:05:25.299Z,4.83
2023-04-04T11:08:08.324Z,4.98
2023-04-04T11:10:43.235Z,4.81
2023-04-04T11:13:17.178Z,4.75
2023-04-04T11:15:54.170Z,4.52
2023-04-04T11:18:33.187Z,4.40
2023-04-04T11:21:05.495Z,4.34
2023-04-04T11:24:18.888Z,4.12
2023-04-04T11:26:49.767Z,4.02
2023-04-04T11:29:53.859Z,4.31
2023-04-04T11:32:36.311Z,4.81
2023-04-04T11:35:07.728Z,5.18
2023-04-04T11:37:45.530Z,5.51
2023-04-04T11:40:17.387Z,5.85
2023-04-04T11:42:56.064Z,5.91
2023-04-04T11:45:27.936Z,5.94
2023-04-04T11:47:59.502Z,5.82
2023-04-04T11:50:37.232Z,5.36
2023-04-04T11:53:09.583Z,5.47
2023-04-04T11:55:47.381Z,5.35
2023-04-04T11:58:20.396Z,5.55
2023-04-04T12:00:50.634Z,5.79
2023-04-04T12:03:20.158Z,6.10
2023-04-04T12:05:50.922Z,6.50
2023-04-04T12:08:21.028Z,6.80
2023-04-04T12:10:51.165Z,7.08
2023-04-04T12:13:21.952Z,7.17
2023-04-04T12:15:51.524Z,7.06
2023-04-04T12:18:24.551Z,6.87
2023-04-04T12:20:54.391Z,6.84
2023-04-04T12:23:24.297Z,7.08
2023-04-04T12:25:55.787Z,7.18
2023-04-04T12:28:28.394Z,7.37
2023-04-04T12:30:58.185Z,7.34
2023-04-04T12:33:27.994Z,7.45
2023-04-04T12:35:57.533Z,7.23
2023-04-04T12:38:28.077Z,7.49
2023-04-04T12:40:58.086Z,8.12
2023-04-04T12:43:30.834Z,8.19
2023-04-04T12:46:00.389Z,8.23
2023-04-04T12:48:31.658Z,8.27
2023-04-04T12:51:02.464Z,7.93
2023-04-04T12:53:33.013Z,7.21
2023-04-04T12:56:06.516Z,6.71
2023-04-04T12:58:37.861Z,6.53
2023-04-04T13:01:08.304Z,7.10
2023-04-04T13:03:38.266Z,7.92
2023-04-04T13:06:14.230Z,8.13
2023-04-04T13:08:54.839Z,8.30
2023-04-04T13:11:25.518Z,8.77
2023-04-04T13:14:05.899Z,9.12
2023-04-04T13:16:37.585Z,8.81
2023-04-04T13:19:07.253Z,8.34
2023-04-04T13:21:36.699Z,8.00
2023-04-04T13:24:06.849Z,8.03
2023-04-04T13:26:36.268Z,8.53
2023-04-04T13:29:07.043Z,8.80
2023-04-04T13:31:36.473Z,9.02
2023-04-04T13:34:05.993Z,9.13
2023-04-04T13:36:35.723Z,8.82
2023-04-04T13:39:05.382Z,8.97
2023-04-04T13:41:34.909Z,9.40
2023-04-04T13:44:05.752Z,9.80
2023-04-04T13:46:35.245Z,9.49
2023-04-04T13:49:04.800Z,9.60
2023-04-04T13:51:34.193Z,9.70
2023-04-04T13:54:03.671Z,10.27
2023-04-04T13:56:33.051Z,10.41
2023-04-04T13:59:03.066Z,10.70
2023-04-04T14:01:34.071Z,11.08
2023-04-04T14:04:10.175Z,11.40
2023-04-04T14:06:47.185Z,11.85
2023-04-04T14:09:16.589Z,12.18
2023-04-04T14:11:46.708Z,12.54
2023-04-04T14:14:16.102Z,12.70
2023-04-04T14:16:47.178Z,12.88
2023-04-04T14:19:17.126Z,12.13
2023-04-04T14:21:46.562Z,11.13
2023-04-04T14:24:16.084Z,10.76
2023-04-04T14:26:45.515Z,10.13
2023-04-04T14:29:14.945Z,9.57
2023-04-04T14:31:45.752Z,8.97
2023-04-04T14:34:15.472Z,8.28
2023-04-04T14:36:45.010Z,8.40
2023-04-04T14:39:14.677Z,9.22
2023-04-04T14:41:44.163Z,9.96
2023-04-04T14:44:14.151Z,10.40
2023-04-04T14:46:44.708Z,11.06
2023-04-04T14:49:15.604Z,11.38
2023-04-04T14:51:45.350Z,11.64
2023-04-04T14:54:14.741Z,11.23
2023-04-04T14:56:45.524Z,10.69
2023-04-04T14:59:14.976Z,10.52
2023-04-04T15:01:44.839Z,10.63
2023-04-04T15:04:15.661Z,9.91
2023-04-04T15:06:45.531Z,9.85
2023-04-04T15:09:14.932Z,10.16
2023-04-04T15:11:44.406Z,10.05
2023-04-04T15:14:14.290Z,9.48
2023-04-04T15:16:43.761Z,9.74
2023-04-04T15:19:13.792Z,10.38
2023-04-04T15:21:44.567Z,10.91
2023-04-04T15:24:14.047Z,11.42
2023-04-04T15:26:43.964Z,11.76
2023-04-04T15:29:14.628Z,12.04
2023-04-04T15:31:44.085Z,12.00
2023-04-04T15:34:13.504Z,12.18
2023-04-04T15:36:44.361Z,12.26
2023-04-04T15:39:14.029Z,12.29
2023-04-04T15:41:43.437Z,12.47
2023-04-04T15:44:12.886Z,12.14
2023-04-04T15:46:42.288Z,12.11
2023-04-04T15:49:11.700Z,12.29
2023-04-04T15:51:44.760Z,12.27
2023-04-04T15:54:15.499Z,11.98
2023-04-04T15:56:44.929Z,11.73
2023-04-04T15:59:14.362Z,11.60
2023-04-04T16:01:43.911Z,11.29
2023-04-04T16:04:13.416Z,11.15
2023-04-04T16:06:42.863Z,10.96
2023-04-04T16:09:12.411Z,10.83
2023-04-04T16:11:43.202Z,10.62
2023-04-04T16:14:13.627Z,10.41
2023-04-04T16:16:43.113Z,10.27
2023-04-04T16:19:14.196Z,10.19
2023-04-04T16:21:43.935Z,10.11
2023-04-04T16:24:14.180Z,10.15
2023-04-04T16:26:47.460Z,9.92
2023-04-04T16:29:20.364Z,9.55
2023-04-04T16:31:50.057Z,9.14
2023-04-04T16:34:19.468Z,8.76
2023-04-04T16:36:48.958Z,8.45
2023-04-04T16:39:18.946Z,8.07
2023-04-04T16:41:49.737Z,7.72
2023-04-04T16:44:19.169Z,7.30
2023-04-04T16:46:48.662Z,6.83
2023-04-04T16:49:18.106Z,6.73
2023-04-04T16:51:47.622Z,6.51
2023-04-04T16:54:17.041Z,6.18
2023-04-04T16:56:46.810Z,5.90
2023-04-04T16:59:17.759Z,5.66
2023-04-04T17:01:49.022Z,5.53
2023-04-04T17:04:18.531Z,5.41
2023-04-04T17:06:48.580Z,5.27
2023-04-04T17:09:17.984Z,5.13
2023-04-04T17:11:47.343Z,4.96
2023-04-04T17:14:18.273Z,4.77
2023-04-04T17:16:48.037Z,4.69
2023-04-04T17:19:17.512Z,4.59
2023-04-04T17:21:47.071Z,4.49
2023-04-04T17:24:16.811Z,4.38
2023-04-04T17:26:48.121Z,4.29
2023-04-04T17:29:20.662Z,4.22
2023-04-04T17:31:50.139Z,4.09
2023-04-04T17:34:20.022Z,3.93
2023-04-04T17:36:49.777Z,3.86
2023-04-04T17:39:19.884Z,3.74
2023-04-04T17:41:49.798Z,3.61
2023-04-04T17:44:22.191Z,3.44
2023-04-04T17:46:51.654Z,3.27
2023-04-04T17:49:21.019Z,3.10
2023-04-04T17:51:51.634Z,2.96
2023-04-04T17:54:21.572Z,2.83
2023-04-04T17:56:51.063Z,2.73
2023-04-04T17:59:21.927Z,2.68
2023-04-04T18:01:51.988Z,2.61
2023-04-04T18:04:22.190Z,2.52
2023-04-04T18:06:52.087Z,2.38
2023-04-04T18:09:21.635Z,2.21
2023-04-04T18:11:52.023Z,2.04
2023-04-04T18:14:22.888Z,1.94
2023-04-04T18:16:52.427Z,1.90
2023-04-04T18:19:21.846Z,1.88
2023-04-04T18:21:52.902Z,1.83
2023-04-04T18:24:25.900Z,1.81
2023-04-04T18:26:55.276Z,1.77
2023-04-04T18:29:26.854Z,1.73
2023-04-04T18:31:56.349Z,1.68
2023-04-04T18:34:26.005Z,1.63
2023-04-04T18:36:55.873Z,1.57
2023-04-04T18:39:25.798Z,1.49
2023-04-04T18:41:55.256Z,1.31
2023-04-04T18:44:27.039Z,1.19
2023-04-04T18:46:58.612Z,0.93
2023-04-04T18:49:28.111Z,0.72
2023-04-04T18:51:58.186Z,0.56
2023-04-04T18:54:27.971Z,0.40
2023-04-04T18:56:57.868Z,0.26
2023-04-04T18:59:29.412Z,0.13
2023-04-04T19:02:00.766Z,0.03
2023-04-04T19:04:33.464Z,-0.08
2023-04-04T19:07:07.733Z,-0.17
2023-04-04T19:09:38.961Z,-0.29
2023-04-04T19:12:08.525Z,-0.38
2023-04-04T19:14:39.296Z,-0.49
2023-04-04T19:17:09.839Z,-0.57
2023-04-04T19:19:39.208Z,-0.64
2023-04-04T19:22:08.998Z,-0.71
2023-04-04T19:24:40.203Z,-0.78
2023-04-04T19:27:09.648Z,-0.84
2023-04-04T19:29:40.482Z,-0.92
2023-04-04T19:32:14.239Z,-1.00
2023-04-04T19:34:44.646Z,-1.03
2023-04-04T19:37:17.566Z,-1.09
2023-04-04T19:39:47.980Z,-1.16
2023-04-04T19:42:27.718Z,-1.23
2023-04-04T19:44:58.461Z,-1.30
2023-04-04T19:47:27.874Z,-1.37
2023-04-04T19:49:58.349Z,-1.43
2023-04-04T19:52:27.769Z,-1.48
2023-04-04T19:54:57.200Z,-1.53
2023-04-04T19:57:27.352Z,-1.57
2023-04-04T20:00:03.119Z,-1.62
2023-04-04T20:02:57.681Z,-1.64
2023-04-04T20:06:08.656Z,-1.66
2023-04-04T20:08:49.107Z,-1.68
2023-04-04T20:11:23.509Z,-1.71
2023-04-04T20:13:53.038Z,-1.75
2023-04-04T20:16:25.333Z,-1.81
2023-04-04T20:18:55.259Z,-1.88
2023-04-04T20:21:27.225Z,-1.96
2023-04-04T20:24:00.184Z,-2.05
2023-04-04T20:26:54.812Z,-2.12
2023-04-04T20:29:28.946Z,-2.14
2023-04-04T20:32:03.419Z,-2.16
2023-04-04T20:34:42.407Z,-2.21
2023-04-04T20:37:19.810Z,-2.23
2023-04-04T20:39:54.066Z,-2.24
2023-04-04T20:42:47.817Z,-2.26
2023-04-04T20:45:46.675Z,-2.26
2023-04-04T20:48:40.902Z,-2.27
2023-04-04T20:51:30.833Z,-2.32
2023-04-04T20:54:03.749Z,-2.33
2023-04-04T20:56:56.404Z,-2.38
2023-04-04T20:59:36.762Z,-2.45
2023-04-04T21:02:19.670Z,-2.51
2023-04-04T21:04:52.118Z,-2.56
2023-04-04T21:07:42.395Z,-2.61
2023-04-04T21:10:47.114Z,-2.69
2023-04-04T21:13:16.962Z,-2.75
2023-04-04T21:15:46.378Z,-2.79
2023-04-04T21:18:22.778Z,-2.82
2023-04-04T21:21:19.614Z,-2.88
2023-04-04T21:23:52.564Z,-2.91
2023-04-04T21:26:34.873Z,-2.92
2023-04-04T21:29:07.346Z,-2.94
2023-04-04T21:31:39.886Z,-2.98
2023-04-04T21:34:14.659Z,-3.02
2023-04-04T21:36:47.215Z,-3.03
2023-04-04T21:39:23.591Z,-3.06
2023-04-04T21:41:58.989Z,-3.09
2023-04-04T21:44:28.666Z,-3.13
2023-04-04T21:46:58.440Z,-3.16
2023-04-04T21:49:27.975Z,-3.16
2023-04-04T21:51:58.725Z,-3.19
2023-04-04T21:54:28.226Z,-3.23
2023-04-04T21:56:57.660Z,-3.28
2023-04-04T21:59:27.149Z,-3.30
2023-04-04T22:01:56.618Z,-3.34
2023-04-04T22:04:26.230Z,-3.39
2023-04-04T22:06:55.670Z,-3.43
2023-04-04T22:09:29.509Z,-3.43
2023-04-04T22:11:58.994Z,-3.44
2023-04-04T22:14:29.982Z,-3.47
2023-04-04T22:16:59.375Z,-3.49
2023-04-04T22:19:34.677Z,-3.50
2023-04-04T22:22:05.427Z,-3.51
2023-04-04T22:24:36.213Z,-3.52
2023-04-04T22:27:05.704Z,-3.54
2023-04-04T22:29:35.071Z,-3.56
2023-04-04T22:32:04.580Z,-3.59
2023-04-04T22:34:34.154Z,-3.62
2023-04-04T22:37:04.538Z,-3.58
2023-04-04T22:39:35.383Z,-3.49
2023-04-04T22:42:05.416Z,-3.53
2023-04-04T22:44:34.939Z,-3.51
2023-04-04T22:47:06.128Z,-3.52
2023-04-04T22:49:37.824Z,-3.55
2023-04-04T22:52:07.793Z,-3.58
2023-04-04T22:54:38.609Z,-3.61
2023-04-04T22:57:08.066Z,-3.62
2023-04-04T22:59:37.561Z,-3.68
2023-04-04T23:02:07.202Z,-3.73
2023-04-04T23:04:37.401Z,-3.77
2023-04-04T23:07:06.882Z,-3.79
2023-04-04T23:09:36.358Z,-3.80
2023-04-04T23:12:08.138Z,-3.80
2023-04-04T23:14:38.672Z,-3.78
2023-04-04T23:17:08.162Z,-3.77
2023-04-04T23:19:37.582Z,-3.76
2023-04-04T23:22:07.440Z,-3.74
2023-04-04T23:24:37.676Z,-3.76
2023-04-04T23:27:08.704Z,-3.80
2023-04-04T23:29:38.284Z,-3.83
2023-04-04T23:32:07.750Z,-3.85
2023-04-04T23:34:37.334Z,-3.85
2023-04-04T23:37:07.432Z,-3.90
2023-04-04T23:39:37.114Z,-3.92
2023-04-04T23:42:07.978Z,-3.93
2023-04-04T23:44:37.488Z,-3.94
2023-04-04T23:47:07.042Z,-3.96
2023-04-04T23:49:36.565Z,-3.98
2023-04-04T23:52:07.715Z,-4.00
2023-04-04T23:54:37.210Z,-4.01
2023-04-04T23:57:07.946Z,-4.00
2023-04-04T23:59:37.368Z,-3.98
